首页
METAR-TAF:

METAR-TAF

机场 :

二月四日国际机场

罗安达, 安哥拉

纬度: 08-51S, 经度: 013-14E, 海拔: 74米

当前天气观测

该预报发布于1小时和15分钟前的22:00 UTC
风速6节,风向南转西南
温度 27°C
湿度 74%
气压 1012 hPa
能见度10公里或以上
少量云层高于2000英尺
散云层高于7000英尺

METAR: FNLU 232200Z 21006KT 9999 FEW020 SCT070 27/22 Q1012 NOSIG

时间: 00:15 (23:15 UTC)

预报

该预报发布于5小时和45分钟前的17:30 UTC
预报有效从23日的 18点(UTC)到 24日的 24点(UTC)
风速8节,风向西
能见度10公里或以上
少量云层高于2000英尺
多云层高于4000英尺
短暂存在
从 23日的 20点(UTC)到 24日的 00点(UTC)
风速8节,风向西南
散云层高于2000英尺
多云层高于3000英尺
成为
从 24日的 03点(UTC)到 24日的 06点(UTC)
风速3节,风向多变
能見度: 6000
散云层高于1400英尺
阴天层高于3000英尺
毛毛雨
几率 30% :
短暂存在
从 24日的 10点(UTC)到 24日的 14点(UTC)
风速8节,风向南转南东
能見度: 8000
少量云层高于1800英尺
多云层高于2300英尺

TAF: FNLU 231730Z 2318/2424 26008KT 9999 FEW020 BKN040 TEMPO 2320/2400 22008KT SCT020 BKN030 BECMG 2403/2406 VRB03KT 6000 DZ SCT014 OVC030 PROB30 TEMPO 2410/2414 16008KT 8000 FEW018 BKN023

超过4000个机场的气象观测和天气预报(METAR&TAF报告)。

可查询的气象台以黄色和红色小点在地图上表示。

将鼠标移到小点上方,可查看气象台名称。

然后点击查看天气观测和预报。

如需切换地图:点击带黑十字的绿色按钮放大地图;点击带横线的绿色按钮缩小地图;或者点击绿色箭头查看邻近地区的地图。


METAR-TAF: